createdAt,value
2022-10-29T00:02:10.022Z,100767.25
2022-10-29T00:07:12.632Z,100755.97
2022-10-29T00:12:15.324Z,100752.88
2022-10-29T00:17:19.245Z,100757.34
2022-10-29T00:22:21.976Z,100757.72
2022-10-29T00:27:27.541Z,100760.81
2022-10-29T00:32:31.724Z,100767.25
2022-10-29T00:37:34.349Z,100769.44
2022-10-29T00:42:38.694Z,100782.06
2022-10-29T00:47:42.778Z,100785.59
2022-10-29T00:52:46.984Z,100779.66
2022-10-29T00:57:52.421Z,100775.16
2022-10-29T01:02:56.725Z,100777.16
2022-10-29T01:07:59.681Z,100786.50
2022-10-29T01:13:21.195Z,100788.84
2022-10-29T01:18:31.301Z,100774.38
2022-10-29T01:24:13.507Z,100770.72
2022-10-29T01:29:25.442Z,100776.03
2022-10-29T01:34:34.526Z,100775.03
2022-10-29T01:39:42.273Z,100771.72
2022-10-29T01:44:49.326Z,100774.75
2022-10-29T01:49:57.383Z,100773.56
2022-10-29T01:55:00.132Z,100768.56
2022-10-29T02:00:06.636Z,100789.50
2022-10-29T02:05:21.818Z,100787.88
2022-10-29T02:10:28.197Z,100771.31
2022-10-29T02:15:35.384Z,100770.44
2022-10-29T02:20:44.271Z,100775.97
2022-10-29T02:25:46.999Z,100782.25
2022-10-29T02:30:49.666Z,100782.75
2022-10-29T02:35:53.632Z,100797.06
2022-10-29T02:40:56.261Z,100802.06
2022-10-29T02:46:12.642Z,100805.38
2022-10-29T02:51:17.427Z,100818.16
2022-10-29T02:56:20.121Z,100803.44
2022-10-29T03:01:22.793Z,100799.78
2022-10-29T03:06:26.877Z,100795.81
2022-10-29T03:11:29.486Z,100804.44
2022-10-29T03:16:32.106Z,100802.84
2022-10-29T03:21:36.146Z,100793.59
2022-10-29T03:26:38.746Z,100788.16
2022-10-29T03:31:43.694Z,100801.59
2022-10-29T03:36:47.732Z,100807.75
2022-10-29T03:41:50.350Z,100807.25
2022-10-29T03:46:53.012Z,100810.41
2022-10-29T03:51:57.057Z,100805.63
2022-10-29T03:56:59.729Z,100796.34
2022-10-29T04:02:02.590Z,100814.72
2022-10-29T04:07:06.747Z,100815.91
2022-10-29T04:12:09.933Z,100811.25
2022-10-29T04:17:13.124Z,100802.69
2022-10-29T04:24:28.957Z,100806.47
2022-10-29T04:33:02.260Z,100819.03
2022-10-29T04:38:10.354Z,100824.84
2022-10-29T04:43:12.997Z,100835.41
2022-10-29T04:48:15.737Z,100843.53
2022-10-29T04:53:19.743Z,100830.78
2022-10-29T04:58:22.345Z,100836.91
2022-10-29T05:03:24.981Z,100831.78
2022-10-29T05:08:28.964Z,100831.28
2022-10-29T05:13:32.060Z,100825.47
2022-10-29T05:18:37.359Z,100824.00
2022-10-29T05:23:41.343Z,100824.81
2022-10-29T05:28:43.986Z,100821.00
2022-10-29T05:33:47.489Z,100823.34
2022-10-29T05:38:52.176Z,100845.31
2022-10-29T05:43:54.813Z,100843.81
2022-10-29T05:48:57.459Z,100855.06
2022-10-29T05:54:01.472Z,100843.63
2022-10-29T05:59:04.079Z,100846.41
2022-10-29T06:04:06.720Z,100850.75
2022-10-29T06:09:10.632Z,100847.44
2022-10-29T06:14:13.359Z,100854.88
2022-10-29T06:19:16.084Z,100844.44
2022-10-29T06:24:20.087Z,100857.25
2022-10-29T06:29:22.648Z,100852.53
2022-10-29T06:34:25.204Z,100834.41
2022-10-29T06:39:29.129Z,100853.22
2022-10-29T06:44:31.740Z,100857.16
2022-10-29T06:49:34.366Z,100869.94
2022-10-29T06:54:38.396Z,100855.38
2022-10-29T06:59:40.972Z,100863.00
2022-10-29T07:04:43.604Z,100866.50
2022-10-29T07:09:47.744Z,100867.00
2022-10-29T07:14:50.444Z,100854.94
2022-10-29T07:19:53.045Z,100856.75
2022-10-29T07:25:00.272Z,100849.66
2022-10-29T07:30:04.184Z,100856.25
2022-10-29T07:35:07.441Z,100856.25
2022-10-29T07:40:12.860Z,100851.78
2022-10-29T07:45:15.490Z,100856.41
2022-10-29T07:50:18.226Z,100844.28
2022-10-29T07:55:22.604Z,100843.59
2022-10-29T08:00:25.900Z,100837.56
2022-10-29T08:05:29.910Z,100839.66
2022-10-29T08:10:34.575Z,100837.09
2022-10-29T08:15:37.301Z,100832.69
2022-10-29T08:20:39.935Z,100837.63
2022-10-29T08:25:44.527Z,100834.47
2022-10-29T08:30:50.991Z,100840.38
2022-10-29T08:35:54.874Z,100835.66
2022-10-29T08:41:23.514Z,100838.59
2022-10-29T08:46:35.031Z,100844.56
2022-10-29T08:51:38.766Z,100820.97
2022-10-29T08:56:45.934Z,100831.34
2022-10-29T09:01:48.870Z,100833.09
2022-10-29T09:06:59.860Z,100826.16
2022-10-29T09:12:16.721Z,100829.06
2022-10-29T09:17:27.019Z,100835.00
2022-10-29T09:22:34.514Z,100826.47
2022-10-29T09:27:47.131Z,100830.84
2022-10-29T09:32:56.398Z,100837.34
2022-10-29T09:38:01.223Z,100827.25
2022-10-29T09:43:07.967Z,100828.81
2022-10-29T09:48:16.037Z,100830.13
2022-10-29T09:53:19.334Z,100817.25
2022-10-29T09:58:24.925Z,100817.72
2022-10-29T10:03:31.515Z,100820.19
2022-10-29T10:08:35.220Z,100825.13
2022-10-29T10:13:52.297Z,100825.22
2022-10-29T10:18:55.308Z,100817.94
2022-10-29T10:23:58.625Z,100819.28
2022-10-29T10:29:13.509Z,100822.69
2022-10-29T10:34:19.973Z,100805.47
2022-10-29T10:39:26.882Z,100795.13
2022-10-29T10:44:31.026Z,100780.81
2022-10-29T10:49:36.095Z,100768.47
2022-10-29T10:54:42.039Z,100780.88
2022-10-29T10:59:53.275Z,100776.56
2022-10-29T11:05:02.192Z,100784.16
2022-10-29T11:10:11.897Z,100778.34
2022-10-29T11:15:19.332Z,100770.59
2022-10-29T11:20:25.216Z,100771.44
2022-10-29T11:25:31.587Z,100766.97
2022-10-29T11:30:41.157Z,100773.44
2022-10-29T11:35:47.174Z,100757.69
2022-10-29T11:40:53.700Z,100750.75
2022-10-29T11:46:05.627Z,100750.28
2022-10-29T11:51:18.503Z,100746.16
2022-10-29T11:56:27.022Z,100724.84
2022-10-29T12:01:37.861Z,100733.31
2022-10-29T12:06:43.521Z,100720.41
2022-10-29T12:11:52.579Z,100710.78
2022-10-29T12:17:02.860Z,100707.53
2022-10-29T12:22:17.087Z,100702.88
2022-10-29T12:27:24.332Z,100699.78
2022-10-29T12:32:32.853Z,100679.13
2022-10-29T12:37:40.814Z,100671.56
2022-10-29T12:42:43.818Z,100669.28
2022-10-29T12:47:52.341Z,100664.19
2022-10-29T12:52:59.369Z,100669.53
2022-10-29T12:58:35.791Z,100666.16
2022-10-29T13:04:02.230Z,100658.50
2022-10-29T13:09:17.222Z,100653.38
2022-10-29T13:14:24.800Z,100659.34
2022-10-29T13:19:47.702Z,100651.94
2022-10-29T13:25:23.557Z,100649.47
2022-10-29T13:30:27.509Z,100653.78
2022-10-29T13:35:43.736Z,100640.47
2022-10-29T13:41:15.429Z,100647.44
2022-10-29T13:46:46.052Z,100634.72
2022-10-29T13:51:57.352Z,100638.19
2022-10-29T13:57:01.381Z,100639.66
2022-10-29T14:02:14.612Z,100640.47
2022-10-29T14:07:22.604Z,100635.53
2022-10-29T14:12:29.054Z,100641.28
2022-10-29T14:17:31.724Z,100640.84
2022-10-29T14:22:37.412Z,100639.59
2022-10-29T14:27:40.115Z,100634.47
2022-10-29T14:32:45.305Z,100632.81
2022-10-29T14:37:49.766Z,100638.34
2022-10-29T14:42:55.319Z,100648.38
2022-10-29T14:47:59.591Z,100639.72
2022-10-29T14:53:05.585Z,100640.72
2022-10-29T14:58:15.979Z,100634.88
2022-10-29T15:03:21.692Z,100628.28
2022-10-29T15:08:29.337Z,100624.94
2022-10-29T15:13:34.709Z,100626.34
2022-10-29T15:18:38.827Z,100627.50
2022-10-29T15:23:44.759Z,100625.66
2022-10-29T15:28:49.165Z,100628.44
2022-10-29T15:33:52.462Z,100621.06
2022-10-29T15:39:27.779Z,100625.72
2022-10-29T15:44:40.637Z,100616.63
2022-10-29T15:49:43.272Z,100608.72
2022-10-29T15:54:47.689Z,100609.91
2022-10-29T15:59:55.312Z,100612.09
2022-10-29T16:04:57.978Z,100611.25
2022-10-29T16:10:02.549Z,100617.69
2022-10-29T16:15:05.817Z,100612.16
2022-10-29T16:20:13.191Z,100621.72
2022-10-29T16:25:23.479Z,100622.25
2022-10-29T16:30:26.203Z,100627.97
2022-10-29T16:35:30.685Z,100623.03
2022-10-29T16:40:34.637Z,100627.88
2022-10-29T16:45:37.327Z,100622.34
2022-10-29T16:50:40.113Z,100613.34
2022-10-29T16:55:44.246Z,100612.06
2022-10-29T17:00:46.981Z,100605.75
2022-10-29T17:05:49.621Z,100613.72
2022-10-29T17:10:59.875Z,100622.34
2022-10-29T17:16:07.323Z,100620.31
2022-10-29T17:21:09.966Z,100614.78
2022-10-29T17:26:13.965Z,100625.00
2022-10-29T17:31:16.598Z,100629.28
2022-10-29T17:36:19.492Z,100627.44
2022-10-29T17:41:23.484Z,100634.63
2022-10-29T17:46:26.111Z,100640.94
2022-10-29T17:51:28.970Z,100637.38
2022-10-29T17:56:33.252Z,100635.22
2022-10-29T18:01:36.162Z,100634.56
2022-10-29T18:06:39.062Z,100644.03
2022-10-29T18:11:43.189Z,100642.94
2022-10-29T18:16:46.407Z,100650.28
2022-10-29T18:21:49.220Z,100627.56
2022-10-29T18:26:53.360Z,100627.56
2022-10-29T18:31:55.985Z,100634.41
2022-10-29T18:36:58.584Z,100629.38
2022-10-29T18:42:02.557Z,100637.44
2022-10-29T18:47:05.362Z,100631.31
2022-10-29T18:52:08.138Z,100630.47
2022-10-29T18:57:15.394Z,100629.13
2022-10-29T19:02:21.428Z,100636.72
2022-10-29T19:07:24.215Z,100632.22
2022-10-29T19:12:28.198Z,100629.84
2022-10-29T19:17:30.867Z,100625.34
2022-10-29T19:22:33.706Z,100615.91
2022-10-29T19:27:37.702Z,100623.88
2022-10-29T19:32:40.395Z,100628.19
2022-10-29T19:37:43.117Z,100624.53
2022-10-29T19:42:48.460Z,100620.00
2022-10-29T19:47:51.067Z,100616.72
2022-10-29T19:52:54.080Z,100622.22
2022-10-29T19:57:58.448Z,100628.28
2022-10-29T20:03:01.217Z,100627.00
2022-10-29T20:08:03.852Z,100625.44
2022-10-29T20:13:07.762Z,100634.53
2022-10-29T20:18:10.386Z,100627.50
2022-10-29T20:23:13.198Z,100633.72
2022-10-29T20:28:17.176Z,100639.13
2022-10-29T20:33:19.781Z,100637.09
2022-10-29T20:38:22.424Z,100629.63
2022-10-29T20:43:26.406Z,100628.63
2022-10-29T20:48:29.058Z,100636.38
2022-10-29T20:53:31.768Z,100628.22
2022-10-29T20:58:36.866Z,100627.41
2022-10-29T21:03:39.500Z,100635.38
2022-10-29T21:08:42.100Z,100634.38
2022-10-29T21:13:46.299Z,100633.72
2022-10-29T21:18:50.537Z,100633.91
2022-10-29T21:23:53.210Z,100641.03
2022-10-29T21:28:57.328Z,100637.75
2022-10-29T21:33:59.930Z,100634.28
2022-10-29T21:39:02.531Z,100622.66
2022-10-29T21:44:06.524Z,100617.53
2022-10-29T21:49:09.364Z,100620.94
2022-10-29T21:54:11.983Z,100624.75
2022-10-29T21:59:15.982Z,100630.53
2022-10-29T22:04:18.768Z,100614.13
2022-10-29T22:09:21.365Z,100622.09
2022-10-29T22:14:25.332Z,100621.94
2022-10-29T22:19:27.945Z,100625.59
2022-10-29T22:24:30.640Z,100625.38
2022-10-29T22:29:34.630Z,100622.94
2022-10-29T22:34:37.228Z,100618.91
2022-10-29T22:39:39.852Z,100612.03
2022-10-29T22:44:43.828Z,100610.19
2022-10-29T22:49:46.498Z,100605.91
2022-10-29T22:54:49.115Z,100601.22
2022-10-29T22:59:53.044Z,100604.09
2022-10-29T23:04:55.898Z,100603.88
2022-10-29T23:09:58.552Z,100603.88
2022-10-29T23:15:02.490Z,100592.25
2022-10-29T23:20:05.727Z,100583.00
2022-10-29T23:25:09.169Z,100583.56
2022-10-29T23:30:14.085Z,100587.78
2022-10-29T23:35:16.789Z,100574.22
2022-10-29T23:40:19.772Z,100567.47
2022-10-29T23:45:23.754Z,100569.19
2022-10-29T23:50:26.482Z,100575.06
2022-10-29T23:55:29.125Z,100571.50
